Time;durP1;ratioP1;P1;durP2;ratioP2;P2;SDS_P1;SDS_P2;PMS_P1;PMS_P2;Temp;Humidity;BMP_temperature;BMP_pressure;BME280_temperature;BME280_humidity;BME280_pressure;Samples;Min_cycle;Max_cycle;Signal;HPM_P1;HPM_P2
2023/04/06 00:00:35;;;;;;;8.10;3.22;;;;;;;;;;6325148;22;19995;-82
2023/04/06 00:03:02;;;;;;;9.68;4.05;;;;;;;;;;6321681;22;20011;-82
2023/04/06 00:05:30;;;;;;;7.53;3.45;;;;;;;;;;6291378;22;20014;-82
2023/04/06 00:07:56;;;;;;;6.28;3.25;;;;;;;;;;6320582;22;20022;-82
2023/04/06 00:10:22;;;;;;;7.53;2.88;;;;;;;;;;6320133;22;20414;-81
2023/04/06 00:12:48;;;;;;;6.07;3.00;;;;;;;;;;6292526;22;20436;-82
2023/04/06 00:15:14;;;;;;;4.43;2.60;;;;;;;;;;6292251;22;20007;-82
2023/04/06 00:17:40;;;;;;;6.15;3.28;;;;;;;;;;6320060;22;19999;-82
2023/04/06 00:20:07;;;;;;;3.78;2.83;;;;;;;;;;6291094;22;20006;-82
2023/04/06 00:22:34;;;;;;;11.02;4.13;;;;;;;;;;6317824;22;20010;-80
2023/04/06 00:25:00;;;;;;;10.07;3.30;;;;;;;;;;6320500;22;20411;-80
2023/04/06 00:27:26;;;;;;;5.80;3.80;;;;;;;;;;6320654;22;20007;-83
2023/04/06 00:29:52;;;;;;;6.50;3.10;;;;;;;;;;6295988;22;20011;-83
2023/04/06 00:32:18;;;;;;;6.00;3.10;;;;;;;;;;6325909;22;20089;-82
2023/04/06 00:34:45;;;;;;;7.80;2.88;;;;;;;;;;6302862;22;20003;-82
2023/04/06 00:37:12;;;;;;;4.05;2.90;;;;;;;;;;6330769;22;19999;-83
2023/04/06 00:39:38;;;;;;;5.03;2.78;;;;;;;;;;6303888;22;20008;-82
2023/04/06 00:42:09;;;;;;;9.35;3.47;;;;;;;;;;6324576;22;20065;-82
2023/04/06 00:44:35;;;;;;;9.88;4.60;;;;;;;;;;6290593;22;20054;-81
2023/04/06 00:47:01;;;;;;;7.00;3.55;;;;;;;;;;6293162;22;20023;-81
2023/04/06 00:49:27;;;;;;;8.05;3.78;;;;;;;;;;6297420;22;20088;-81
2023/04/06 00:51:53;;;;;;;7.70;3.22;;;;;;;;;;6297533;22;20019;-82
2023/04/06 00:54:19;;;;;;;8.40;3.22;;;;;;;;;;6325548;22;19995;-82
2023/04/06 00:56:45;;;;;;;6.88;3.17;;;;;;;;;;6302426;22;20003;-83
2023/04/06 00:59:12;;;;;;;5.43;2.85;;;;;;;;;;6328083;22;20026;-81
2023/04/06 01:01:38;;;;;;;5.45;2.83;;;;;;;;;;6293970;22;20000;-82
2023/04/06 01:04:04;;;;;;;7.65;3.30;;;;;;;;;;6321330;22;19999;-82
2023/04/06 01:06:30;;;;;;;7.32;3.15;;;;;;;;;;6297142;22;20015;-81
2023/04/06 01:08:56;;;;;;;5.65;3.22;;;;;;;;;;6296455;22;20010;-82
2023/04/06 01:11:31;;;;;;;8.18;2.92;;;;;;;;;;6330923;22;20062;-83
2023/04/06 01:13:57;;;;;;;7.73;3.17;;;;;;;;;;6331875;22;20023;-82
2023/04/06 01:16:23;;;;;;;7.05;3.58;;;;;;;;;;6321293;22;20208;-82
2023/04/06 01:18:50;;;;;;;6.10;3.45;;;;;;;;;;6321576;22;20025;-81
2023/04/06 01:21:16;;;;;;;6.85;3.00;;;;;;;;;;6319471;22;20003;-82
2023/04/06 01:23:48;;;;;;;4.32;2.78;;;;;;;;;;6321425;22;19999;-81
2023/04/06 01:26:15;;;;;;;7.50;3.28;;;;;;;;;;6319176;22;19999;-81
2023/04/06 01:28:41;;;;;;;8.05;2.88;;;;;;;;;;6290658;22;20007;-81
2023/04/06 01:31:07;;;;;;;11.50;3.60;;;;;;;;;;6316953;22;20000;-82
2023/04/06 01:33:34;;;;;;;5.32;3.13;;;;;;;;;;6294708;22;20011;-81
2023/04/06 01:36:00;;;;;;;9.98;3.25;;;;;;;;;;6319017;22;19999;-82
2023/04/06 01:38:27;;;;;;;8.32;3.00;;;;;;;;;;6320515;22;20090;-82
2023/04/06 01:40:53;;;;;;;7.85;3.00;;;;;;;;;;6293570;22;20046;-82
2023/04/06 01:43:20;;;;;;;9.55;3.35;;;;;;;;;;6320258;22;19999;-81
2023/04/06 01:45:46;;;;;;;8.07;3.45;;;;;;;;;;6291147;22;20347;-81
2023/04/06 01:48:12;;;;;;;10.55;3.10;;;;;;;;;;6317230;22;20003;-82
2023/04/06 01:50:38;;;;;;;6.35;3.20;;;;;;;;;;6298372;22;20086;-80
2023/04/06 01:53:04;;;;;;;6.85;3.08;;;;;;;;;;6322958;22;20056;-82
2023/04/06 01:55:30;;;;;;;5.30;3.50;;;;;;;;;;6322526;22;20003;-82
2023/04/06 01:57:56;;;;;;;11.32;4.20;;;;;;;;;;6323426;22;20007;-83
2023/04/06 02:00:22;;;;;;;9.60;3.13;;;;;;;;;;6329084;22;19991;-82
2023/04/06 02:02:48;;;;;;;5.20;3.03;;;;;;;;;;6328177;22;20003;-81
2023/04/06 02:05:15;;;;;;;6.95;3.30;;;;;;;;;;6292563;22;20078;-81
2023/04/06 02:07:41;;;;;;;5.28;3.40;;;;;;;;;;6318542;22;19999;-82
2023/04/06 02:10:11;;;;;;;8.77;4.00;;;;;;;;;;6296687;22;20006;-83
2023/04/06 02:12:37;;;;;;;8.18;3.20;;;;;;;;;;6302673;22;20011;-83
2023/04/06 02:15:04;;;;;;;10.55;3.15;;;;;;;;;;6301292;22;19996;-83
2023/04/06 02:17:30;;;;;;;10.75;3.10;;;;;;;;;;6302123;22;20022;-82
2023/04/06 02:19:56;;;;;;;8.48;3.47;;;;;;;;;;6327448;22;20006;-81
2023/04/06 02:22:22;;;;;;;7.72;2.95;;;;;;;;;;6296417;22;20007;-82
2023/04/06 02:24:48;;;;;;;8.95;3.13;;;;;;;;;;6324547;22;20058;-81
2023/04/06 02:27:15;;;;;;;6.18;3.30;;;;;;;;;;6297602;22;20010;-81
2023/04/06 02:29:41;;;;;;;7.60;3.00;;;;;;;;;;6325759;22;20006;-82
2023/04/06 02:32:07;;;;;;;8.18;3.53;;;;;;;;;;6300283;22;20140;-82
2023/04/06 02:34:33;;;;;;;7.68;3.28;;;;;;;;;;6298140;22;20007;-82
2023/04/06 02:36:59;;;;;;;12.05;3.90;;;;;;;;;;6299703;22;20007;-82
2023/04/06 02:39:25;;;;;;;6.38;3.63;;;;;;;;;;6326047;22;20063;-82
2023/04/06 02:41:51;;;;;;;9.00;3.53;;;;;;;;;;6300588;22;20034;-82
2023/04/06 02:44:17;;;;;;;6.03;3.28;;;;;;;;;;6328024;22;20003;-83
2023/04/06 02:46:43;;;;;;;6.25;2.75;;;;;;;;;;6300040;22;20070;-81
2023/04/06 02:49:09;;;;;;;5.85;3.40;;;;;;;;;;6323864;22;19999;-82
2023/04/06 02:51:35;;;;;;;4.25;3.10;;;;;;;;;;6324522;22;20017;-82
2023/04/06 02:54:02;;;;;;;7.18;3.35;;;;;;;;;;6297734;22;20464;-82
2023/04/06 02:56:28;;;;;;;7.68;3.22;;;;;;;;;;6325532;22;20010;-82
2023/04/06 02:58:54;;;;;;;7.07;3.80;;;;;;;;;;6323739;22;20003;-81
2023/04/06 03:01:20;;;;;;;8.77;4.07;;;;;;;;;;6298951;22;20007;-81
2023/04/06 03:03:46;;;;;;;10.82;3.50;;;;;;;;;;6320460;22;20425;-81
2023/04/06 03:06:12;;;;;;;7.15;3.38;;;;;;;;;;6294874;22;20085;-81
2023/04/06 03:08:38;;;;;;;7.10;3.47;;;;;;;;;;6315669;22;20471;-81
2023/04/06 03:11:04;;;;;;;6.00;3.35;;;;;;;;;;6289996;22;20429;-81
2023/04/06 03:13:31;;;;;;;9.50;3.70;;;;;;;;;;6288791;22;20018;-81
2023/04/06 03:15:57;;;;;;;6.75;3.63;;;;;;;;;;6291275;22;20000;-81
2023/04/06 03:18:24;;;;;;;8.55;3.42;;;;;;;;;;6289550;22;20011;-81
2023/04/06 03:20:51;;;;;;;10.70;4.03;;;;;;;;;;6287655;22;19999;-81
2023/04/06 03:23:17;;;;;;;10.02;3.70;;;;;;;;;;6288724;22;20007;-81
2023/04/06 03:25:43;;;;;;;11.13;3.75;;;;;;;;;;6318371;22;19999;-82
2023/04/06 03:28:09;;;;;;;11.65;4.55;;;;;;;;;;6290633;22;20010;-81
2023/04/06 03:30:35;;;;;;;9.25;3.83;;;;;;;;;;6289692;22;20060;-82
2023/04/06 03:33:01;;;;;;;12.50;4.63;;;;;;;;;;6293825;22;20003;-82
2023/04/06 03:35:27;;;;;;;6.70;3.75;;;;;;;;;;6326303;22;20085;-83
2023/04/06 03:37:53;;;;;;;7.97;3.30;;;;;;;;;;6327542;22;20021;-82
2023/04/06 03:40:19;;;;;;;10.68;4.75;;;;;;;;;;6327608;22;20018;-82
2023/04/06 03:42:45;;;;;;;7.78;3.40;;;;;;;;;;6302610;22;19999;-82
2023/04/06 03:45:13;;;;;;;11.90;4.57;;;;;;;;;;6303370;22;20045;-81
2023/04/06 03:47:40;;;;;;;11.65;3.33;;;;;;;;;;6303149;22;20091;-82
2023/04/06 03:50:06;;;;;;;9.70;3.28;;;;;;;;;;6333582;22;20002;-83
2023/04/06 04:05:48;;;;;;;8.95;3.55;;;;;;;;;;6285069;22;20082;-82
2023/04/06 04:08:17;;;;;;;10.43;3.65;;;;;;;;;;6307562;22;20008;-81
2023/04/06 04:10:49;;;;;;;6.93;3.28;;;;;;;;;;6303847;22;19999;-81
2023/04/06 04:13:21;;;;;;;8.13;3.95;;;;;;;;;;6306937;22;20059;-81
2023/04/06 04:15:53;;;;;;;10.20;3.40;;;;;;;;;;6330385;22;19995;-81
2023/04/06 04:18:21;;;;;;;5.97;3.28;;;;;;;;;;6304783;22;19983;-81
2023/04/06 04:20:53;;;;;;;11.20;3.88;;;;;;;;;;6304454;22;19999;-82
2023/04/06 04:23:28;;;;;;;8.82;3.83;;;;;;;;;;6331204;22;20041;-80
2023/04/06 05:53:01;;;;;;;10.48;3.10;;;;;;;;;;6260613;22;20034;-77
2023/04/06 06:47:40;;;;;;;7.63;2.95;;;;;;;;;;6235997;22;20015;-82
2023/04/06 07:21:16;;;;;;;3.58;2.53;;;;;;;;;;6282416;22;20022;-82
2023/04/06 07:23:47;;;;;;;4.57;2.85;;;;;;;;;;6309979;22;20010;-85
2023/04/06 08:31:11;;;;;;;6.05;2.83;;;;;;;;;;6299627;22;20023;-82
2023/04/06 08:33:39;;;;;;;6.05;2.78;;;;;;;;;;6340386;22;20178;-83
2023/04/06 08:54:15;;;;;;;6.18;2.90;;;;;;;;;;6352417;22;20029;-84
2023/04/06 08:56:51;;;;;;;3.67;2.35;;;;;;;;;;6313985;22;19995;-84
2023/04/06 08:59:17;;;;;;;;;;;;;;;;;;6339805;22;20003;-83
2023/04/06 09:01:50;;;;;;;;;;;;;;;;;;6366349;22;19956;-81
2023/04/06 09:04:25;;;;;;;6.25;2.75;;;;;;;;;;6366273;22;19910;-82
2023/04/06 09:06:52;;;;;;;4.85;2.35;;;;;;;;;;6339753;22;20007;-84
2023/04/06 09:09:24;;;;;;;4.63;2.20;;;;;;;;;;6339573;22;20017;-82
2023/04/06 09:11:54;;;;;;;5.43;2.30;;;;;;;;;;6339432;22;19988;-82
2023/04/06 09:14:45;;;;;;;6.47;2.47;;;;;;;;;;6339109;22;19995;-83
2023/04/06 09:17:27;;;;;;;4.93;2.80;;;;;;;;;;6364430;22;19979;-82
2023/04/06 09:20:03;;;;;;;2.58;1.83;;;;;;;;;;6339508;22;20007;-84
2023/04/06 09:22:36;;;;;;;6.40;2.50;;;;;;;;;;6339334;22;20011;-81
2023/04/06 09:25:03;;;;;;;7.00;2.47;;;;;;;;;;6339092;22;20018;-83
2023/04/06 09:27:33;;;;;;;7.88;2.83;;;;;;;;;;6338910;22;19991;-84
2023/04/06 09:30:19;;;;;;;4.70;2.72;;;;;;;;;;6339710;22;19987;-85
2023/04/06 09:32:54;;;;;;;;;;;;;;;;;;6367441;22;20006;-84
2023/04/06 09:35:26;;;;;;;7.32;2.25;;;;;;;;;;6339647;22;19911;-84
2023/04/06 09:37:53;;;;;;;5.90;2.95;;;;;;;;;;6340188;22;20006;-85
2023/04/06 09:40:25;;;;;;;7.20;2.70;;;;;;;;;;6339865;22;20007;-85
2023/04/06 09:42:59;;;;;;;5.55;2.85;;;;;;;;;;6365639;22;19983;-82
2023/04/06 09:45:30;;;;;;;5.55;2.65;;;;;;;;;;6338651;22;20001;-82
2023/04/06 09:48:00;;;;;;;3.60;2.42;;;;;;;;;;6339695;22;19983;-82
2023/04/06 09:50:30;;;;;;;3.65;2.05;;;;;;;;;;6339617;22;20011;-87
2023/04/06 09:53:03;;;;;;;2.63;2.10;;;;;;;;;;6365866;22;20090;-83
2023/04/06 09:55:49;;;;;;;4.95;2.00;;;;;;;;;;6366179;22;20029;-84
2023/04/06 09:58:25;;;;;;;7.03;2.28;;;;;;;;;;6339180;22;20015;-85
2023/04/06 10:01:04;;;;;;;2.80;2.17;;;;;;;;;;6340283;22;19991;-85
2023/04/06 10:03:38;;;;;;;4.32;2.25;;;;;;;;;;6339458;22;20025;-85
2023/04/06 10:06:11;;;;;;;2.17;1.80;;;;;;;;;;6366673;22;20066;-85
2023/04/06 10:08:41;;;;;;;4.45;2.20;;;;;;;;;;6340807;22;19987;-83
2023/04/06 10:11:13;;;;;;;5.20;2.30;;;;;;;;;;6341708;22;20023;-84
2023/04/06 10:13:42;;;;;;;4.90;1.88;;;;;;;;;;6368338;22;20003;-84
2023/04/06 10:16:13;;;;;;;6.07;2.10;;;;;;;;;;6339853;22;20003;-84
2023/04/06 10:18:59;;;;;;;3.97;2.03;;;;;;;;;;6338974;22;19994;-82
2023/04/06 10:21:31;;;;;;;5.07;2.00;;;;;;;;;;6365203;22;20017;-82
2023/04/06 10:24:10;;;;;;;6.03;2.13;;;;;;;;;;6334250;22;20022;-82
2023/04/06 10:26:36;;;;;;;4.32;1.90;;;;;;;;;;6362000;22;19995;-82
2023/04/06 10:29:05;;;;;;;4.03;1.55;;;;;;;;;;6334500;22;19995;-83
2023/04/06 10:31:34;;;;;;;2.83;1.95;;;;;;;;;;6337866;22;20022;-84
2023/04/06 10:34:06;;;;;;;4.50;2.03;;;;;;;;;;6337548;22;20007;-81
2023/04/06 10:36:41;;;;;;;7.05;2.15;;;;;;;;;;6362774;22;20021;-82
2023/04/06 10:39:10;;;;;;;2.10;1.90;;;;;;;;;;6336464;22;20006;-82
2023/04/06 10:41:48;;;;;;;3.58;2.20;;;;;;;;;;6362978;22;20073;-81
2023/04/06 10:44:29;;;;;;;4.80;2.47;;;;;;;;;;6362216;22;20016;-82
2023/04/06 10:47:02;;;;;;;2.40;1.88;;;;;;;;;;6357612;22;20084;-82
2023/04/06 10:49:31;;;;;;;4.65;2.45;;;;;;;;;;6364394;22;19987;-81
2023/04/06 10:52:00;;;;;;;4.82;1.88;;;;;;;;;;6362404;22;19999;-81
2023/04/06 10:54:29;;;;;;;2.58;1.83;;;;;;;;;;6356885;22;19991;-81
2023/04/06 10:56:56;;;;;;;5.40;1.90;;;;;;;;;;6356901;22;19991;-82
2023/04/06 10:59:24;;;;;;;7.03;2.30;;;;;;;;;;6365374;22;20010;-82
2023/04/06 11:01:50;;;;;;;4.70;2.35;;;;;;;;;;6365995;22;19983;-84
2023/04/06 11:04:25;;;;;;;2.88;2.13;;;;;;;;;;6336707;22;20030;-82
2023/04/06 11:06:54;;;;;;;8.73;3.30;;;;;;;;;;6363651;22;19983;-81
2023/04/06 11:09:25;;;;;;;6.05;2.53;;;;;;;;;;6356400;22;20027;-82
2023/04/06 11:11:58;;;;;;;5.82;2.42;;;;;;;;;;6355832;22;20034;-81
2023/04/06 11:14:26;;;;;;;2.92;2.17;;;;;;;;;;6357196;22;20303;-81
2023/04/06 11:16:55;;;;;;;4.22;2.45;;;;;;;;;;6356934;22;20063;-80
2023/04/06 11:19:21;;;;;;;4.30;2.00;;;;;;;;;;6356274;22;19999;-82
2023/04/06 11:21:48;;;;;;;2.08;1.80;;;;;;;;;;6330339;22;20007;-81
2023/04/06 11:24:21;;;;;;;2.95;1.95;;;;;;;;;;6359948;22;20003;-81
2023/04/06 11:27:05;;;;;;;3.97;2.17;;;;;;;;;;6328997;22;20067;-81
2023/04/06 11:29:38;;;;;;;4.18;2.10;;;;;;;;;;6329903;22;20009;-83
2023/04/06 11:32:08;;;;;;;3.78;2.20;;;;;;;;;;6356577;22;20025;-80
2023/04/06 11:34:38;;;;;;;4.10;2.38;;;;;;;;;;6327633;22;20381;-80
2023/04/06 11:37:10;;;;;;;3.72;2.20;;;;;;;;;;6330585;22;20025;-81
2023/04/06 11:39:44;;;;;;;3.25;1.90;;;;;;;;;;6333063;22;20024;-82
2023/04/06 11:42:13;;;;;;;4.30;1.80;;;;;;;;;;6332956;22;20080;-82
2023/04/06 11:44:42;;;;;;;5.70;2.40;;;;;;;;;;6331093;22;20389;-81
2023/04/06 11:47:14;;;;;;;4.55;1.90;;;;;;;;;;6331399;22;20003;-82
2023/04/06 11:49:44;;;;;;;5.95;2.30;;;;;;;;;;6361048;22;20013;-82
2023/04/06 11:52:17;;;;;;;8.00;2.67;;;;;;;;;;6331614;22;20002;-82
2023/04/06 11:54:54;;;;;;;5.72;2.03;;;;;;;;;;6331256;22;20003;-82
2023/04/06 11:57:20;;;;;;;3.38;1.80;;;;;;;;;;6356830;22;19999;-80
2023/04/06 11:59:55;;;;;;;3.45;1.88;;;;;;;;;;6328118;22;20041;-81
2023/04/06 12:02:24;;;;;;;2.03;1.60;;;;;;;;;;6326916;22;20050;-81
2023/04/06 12:04:53;;;;;;;3.35;1.80;;;;;;;;;;6327474;22;20007;-80
2023/04/06 12:07:28;;;;;;;2.72;1.67;;;;;;;;;;6354351;22;20005;-80
2023/04/06 12:09:57;;;;;;;2.17;1.70;;;;;;;;;;6353653;22;19999;-81
2023/04/06 12:12:28;;;;;;;5.35;1.92;;;;;;;;;;6326583;22;20671;-81
2023/04/06 12:14:56;;;;;;;4.88;2.30;;;;;;;;;;6353834;22;19995;-81
2023/04/06 12:17:23;;;;;;;4.93;1.70;;;;;;;;;;6355818;22;20022;-81
2023/04/06 12:19:49;;;;;;;2.78;1.70;;;;;;;;;;6327844;22;20007;-80
2023/04/06 12:22:17;;;;;;;2.63;1.98;;;;;;;;;;6329013;22;20002;-80
2023/04/06 12:24:49;;;;;;;2.80;1.55;;;;;;;;;;6355471;22;20325;-81
2023/04/06 12:27:23;;;;;;;3.03;1.90;;;;;;;;;;6331861;22;20467;-82
2023/04/06 12:29:52;;;;;;;3.25;2.00;;;;;;;;;;6362828;22;19999;-82
2023/04/06 12:32:27;;;;;;;2.53;1.58;;;;;;;;;;6339923;22;19995;-82
2023/04/06 12:34:53;;;;;;;3.17;1.90;;;;;;;;;;6367542;22;19999;-83
2023/04/06 12:37:27;;;;;;;2.47;1.77;;;;;;;;;;6367163;22;19991;-83
2023/04/06 12:39:55;;;;;;;1.67;1.58;;;;;;;;;;6324001;22;19999;-83
2023/04/06 12:42:21;;;;;;;2.70;1.70;;;;;;;;;;6335035;22;20054;-87
2023/04/06 12:44:47;;;;;;;2.80;1.90;;;;;;;;;;6336681;22;19999;-86
2023/04/06 12:47:13;;;;;;;2.25;1.70;;;;;;;;;;6335556;22;20051;-85
2023/04/06 12:49:39;;;;;;;2.45;1.67;;;;;;;;;;6333586;22;20002;-85
2023/04/06 12:52:06;;;;;;;3.75;1.80;;;;;;;;;;6332800;22;19999;-85
2023/04/06 12:54:32;;;;;;;2.42;1.90;;;;;;;;;;6306200;22;20022;-85
2023/04/06 12:56:58;;;;;;;4.28;1.95;;;;;;;;;;6333798;22;20066;-85
2023/04/06 12:59:24;;;;;;;4.85;1.90;;;;;;;;;;6307177;22;20476;-84
2023/04/06 13:01:54;;;;;;;2.20;1.98;;;;;;;;;;6332470;22;20273;-84
2023/04/06 13:04:23;;;;;;;3.55;1.48;;;;;;;;;;6316328;22;20002;-84
2023/04/06 13:06:49;;;;;;;2.08;1.50;;;;;;;;;;6326726;22;20014;-86
2023/04/06 13:09:15;;;;;;;3.15;1.88;;;;;;;;;;6314957;22;20026;-88
2023/04/06 13:11:41;;;;;;;6.38;1.85;;;;;;;;;;6312800;22;20069;-86
2023/04/06 13:14:08;;;;;;;2.67;1.60;;;;;;;;;;6334810;22;20033;-85
2023/04/06 13:16:34;;;;;;;3.30;1.70;;;;;;;;;;6304498;22;20041;-84
2023/04/06 13:19:01;;;;;;;5.45;1.67;;;;;;;;;;6330743;22;20058;-84
2023/04/06 13:21:27;;;;;;;2.75;1.77;;;;;;;;;;6306728;22;20452;-84
2023/04/06 13:23:53;;;;;;;1.60;1.50;;;;;;;;;;6305434;22;20091;-83
2023/04/06 13:26:19;;;;;;;3.65;2.22;;;;;;;;;;6336473;22;19995;-84
2023/04/06 13:28:45;;;;;;;2.08;1.50;;;;;;;;;;6334391;22;20014;-84
2023/04/06 13:31:11;;;;;;;1.67;1.58;;;;;;;;;;6334134;22;20006;-84
2023/04/06 13:33:38;;;;;;;3.35;1.85;;;;;;;;;;6303286;22;20053;-84
2023/04/06 13:36:04;;;;;;;3.42;1.80;;;;;;;;;;6331940;22;20003;-84
2023/04/06 13:38:30;;;;;;;2.65;1.33;;;;;;;;;;6333130;22;19999;-84
2023/04/06 13:40:57;;;;;;;5.60;1.70;;;;;;;;;;6332680;22;20017;-84
2023/04/06 13:43:25;;;;;;;4.10;1.65;;;;;;;;;;6335029;22;20333;-85
2023/04/06 13:45:54;;;;;;;3.90;1.77;;;;;;;;;;6336624;22;20425;-84
2023/04/06 13:48:20;;;;;;;2.05;1.85;;;;;;;;;;6336375;22;20006;-84
2023/04/06 13:50:46;;;;;;;2.38;1.70;;;;;;;;;;6335979;22;20291;-83
2023/04/06 13:53:12;;;;;;;2.80;1.88;;;;;;;;;;6332681;22;20018;-83
2023/04/06 13:55:38;;;;;;;2.47;1.65;;;;;;;;;;6334664;22;20007;-83
2023/04/06 13:58:05;;;;;;;3.35;1.70;;;;;;;;;;6334990;22;20017;-83
2023/04/06 14:00:31;;;;;;;3.20;1.60;;;;;;;;;;6307360;22;20009;-83
2023/04/06 14:02:57;;;;;;;2.83;1.50;;;;;;;;;;6333273;22;20282;-83
2023/04/06 14:05:23;;;;;;;2.45;1.70;;;;;;;;;;6333570;22;20505;-84
2023/04/06 14:07:50;;;;;;;1.60;1.50;;;;;;;;;;6307562;22;20013;-85
2023/04/06 14:10:16;;;;;;;1.95;1.60;;;;;;;;;;6334903;22;20355;-83
2023/04/06 14:12:43;;;;;;;2.72;1.60;;;;;;;;;;6307002;22;20017;-85
2023/04/06 14:15:10;;;;;;;2.22;1.50;;;;;;;;;;6334657;22;20007;-84
2023/04/06 14:17:37;;;;;;;2.35;1.73;;;;;;;;;;6336666;22;19999;-82
2023/04/06 14:20:03;;;;;;;2.70;1.42;;;;;;;;;;6331712;22;20014;-82
2023/04/06 14:22:29;;;;;;;1.77;1.55;;;;;;;;;;6334174;22;20013;-83
2023/04/06 14:24:55;;;;;;;3.58;1.92;;;;;;;;;;6304812;22;20184;-85
2023/04/06 14:27:22;;;;;;;2.35;1.30;;;;;;;;;;6307162;22;20041;-83
2023/04/06 14:29:48;;;;;;;2.60;1.50;;;;;;;;;;6304539;22;20028;-83
2023/04/06 14:32:14;;;;;;;3.42;1.67;;;;;;;;;;6331963;22;20010;-83
2023/04/06 14:34:40;;;;;;;3.03;1.60;;;;;;;;;;6333056;22;20072;-83
2023/04/06 14:37:08;;;;;;;1.50;1.33;;;;;;;;;;6332534;22;20006;-84
2023/04/06 14:39:35;;;;;;;2.67;1.60;;;;;;;;;;6333382;22;19998;-83
2023/04/06 14:42:01;;;;;;;1.92;1.40;;;;;;;;;;6334778;22;20009;-84
2023/04/06 14:44:27;;;;;;;2.95;1.60;;;;;;;;;;6306684;22;19999;-83
2023/04/06 14:46:53;;;;;;;3.30;1.70;;;;;;;;;;6307246;22;20006;-83
2023/04/06 14:49:19;;;;;;;2.00;1.40;;;;;;;;;;6305525;22;20406;-83
2023/04/06 14:51:45;;;;;;;3.08;1.58;;;;;;;;;;6304525;22;20094;-84
2023/04/06 14:54:11;;;;;;;2.50;1.45;;;;;;;;;;6333574;22;20067;-85
2023/04/06 14:56:38;;;;;;;1.70;1.60;;;;;;;;;;6335515;22;20437;-84
2023/04/06 14:59:04;;;;;;;2.83;1.60;;;;;;;;;;6335185;22;20041;-85
2023/04/06 15:01:35;;;;;;;2.72;1.52;;;;;;;;;;6307185;22;20055;-83
2023/04/06 15:04:02;;;;;;;3.53;1.80;;;;;;;;;;6305858;22;20027;-83
2023/04/06 15:06:30;;;;;;;2.22;1.30;;;;;;;;;;6308469;22;20002;-84
2023/04/06 15:08:56;;;;;;;3.20;1.42;;;;;;;;;;6334629;22;20441;-83
2023/04/06 15:11:22;;;;;;;1.52;1.20;;;;;;;;;;6308843;22;20094;-85
2023/04/06 15:13:48;;;;;;;2.33;1.45;;;;;;;;;;6337939;22;20489;-88
2023/04/06 15:16:17;;;;;;;2.00;1.40;;;;;;;;;;6345762;22;20010;-87
2023/04/06 15:18:43;;;;;;;2.33;1.38;;;;;;;;;;6362849;22;20012;-83
2023/04/06 15:21:09;;;;;;;3.92;1.50;;;;;;;;;;6307076;22;20023;-87
2023/04/06 15:23:35;;;;;;;2.08;1.55;;;;;;;;;;6308872;22;20011;-78
2023/04/06 15:26:02;;;;;;;1.50;1.40;;;;;;;;;;6312549;22;20089;-87
2023/04/06 15:28:28;;;;;;;1.60;1.35;;;;;;;;;;6313104;22;20010;-89
2023/04/06 15:30:55;;;;;;;4.55;1.65;;;;;;;;;;6313808;22;20030;-85
2023/04/06 15:33:22;;;;;;;1.80;1.20;;;;;;;;;;6313264;22;20486;-86
2023/04/06 15:35:48;;;;;;;2.20;1.20;;;;;;;;;;6342884;22;19999;-90
2023/04/06 15:38:15;;;;;;;1.55;1.45;;;;;;;;;;6316256;22;20062;-86
2023/04/06 15:40:45;;;;;;;1.95;1.20;;;;;;;;;;6341128;22;20006;-80
2023/04/06 15:43:12;;;;;;;1.30;1.30;;;;;;;;;;6345181;22;20007;-84
2023/04/06 15:45:38;;;;;;;1.95;1.30;;;;;;;;;;6315243;22;20015;-88
2023/04/06 15:48:05;;;;;;;1.65;1.30;;;;;;;;;;6345643;22;20082;-88
2023/04/06 15:50:32;;;;;;;2.75;1.45;;;;;;;;;;6315446;22;20003;-79
2023/04/06 15:52:58;;;;;;;4.07;1.50;;;;;;;;;;6341473;22;20013;-90
2023/04/06 15:55:24;;;;;;;1.60;1.50;;;;;;;;;;6317193;22;19991;-85
2023/04/06 15:57:50;;;;;;;3.38;2.30;;;;;;;;;;6315477;22;20010;-77
2023/04/06 16:00:17;;;;;;;2.05;1.70;;;;;;;;;;6343892;22;20498;-86
2023/04/06 16:02:43;;;;;;;1.70;1.60;;;;;;;;;;6343944;22;20006;-79
2023/04/06 16:05:09;;;;;;;2.13;1.50;;;;;;;;;;6318129;22;20383;-85
2023/04/06 16:07:35;;;;;;;2.78;1.80;;;;;;;;;;6313882;22;20010;-82
2023/04/06 16:10:03;;;;;;;1.55;1.45;;;;;;;;;;6317782;22;20007;-88
2023/04/06 16:12:32;;;;;;;2.55;1.70;;;;;;;;;;6316969;22;20013;-84
2023/04/06 16:14:59;;;;;;;6.82;1.67;;;;;;;;;;6344013;22;20007;-81
2023/04/06 16:17:25;;;;;;;2.33;1.40;;;;;;;;;;6346486;22;20412;-87
2023/04/06 16:19:52;;;;;;;2.42;1.90;;;;;;;;;;6342487;22;19997;-85
2023/04/06 16:22:18;;;;;;;2.15;1.40;;;;;;;;;;6340976;22;20015;-79
2023/04/06 16:24:44;;;;;;;2.75;2.55;;;;;;;;;;6315825;22;20018;-90
2023/04/06 16:27:11;;;;;;;3.13;2.30;;;;;;;;;;6313540;22;20037;-83
2023/04/06 16:29:37;;;;;;;2.53;1.90;;;;;;;;;;6343637;22;20316;-82
2023/04/06 16:32:03;;;;;;;25.23;14.13;;;;;;;;;;6345174;22;19998;-89
2023/04/06 16:34:31;;;;;;;3.40;2.67;;;;;;;;;;6344892;22;19990;-86
2023/04/06 16:36:58;;;;;;;3.65;2.28;;;;;;;;;;6348005;22;20013;-79
2023/04/06 16:39:24;;;;;;;2.80;1.67;;;;;;;;;;6316153;22;20535;-83
2023/04/06 16:41:50;;;;;;;2.95;2.10;;;;;;;;;;6316116;22;20053;-81
2023/04/06 16:44:16;;;;;;;3.30;1.70;;;;;;;;;;6316342;22;20014;-82
2023/04/06 16:46:43;;;;;;;4.32;3.03;;;;;;;;;;6344473;22;20314;-88
2023/04/06 16:49:09;;;;;;;3.47;2.20;;;;;;;;;;6342192;22;20075;-88
2023/04/06 16:51:36;;;;;;;1.55;1.38;;;;;;;;;;6315937;22;20052;-78
2023/04/06 16:54:02;;;;;;;2.45;1.92;;;;;;;;;;6344949;22;20003;-88
2023/04/06 16:56:28;;;;;;;2.83;2.28;;;;;;;;;;6344788;22;20032;-86
2023/04/06 16:58:54;;;;;;;5.70;3.80;;;;;;;;;;6345588;22;20032;-82
2023/04/06 17:01:25;;;;;;;6.80;4.57;;;;;;;;;;6315882;22;20002;-80
2023/04/06 17:03:51;;;;;;;5.03;3.08;;;;;;;;;;6316652;22;20036;-83
2023/04/06 17:06:17;;;;;;;4.22;2.17;;;;;;;;;;6318190;22;20066;-90
2023/04/06 17:08:44;;;;;;;5.90;4.03;;;;;;;;;;6347458;22;20023;-81
2023/04/06 17:11:12;;;;;;;3.10;2.00;;;;;;;;;;6317873;22;20067;-80
2023/04/06 17:13:38;;;;;;;1.98;1.70;;;;;;;;;;6318503;22;19998;-88
2023/04/06 17:16:06;;;;;;;3.20;1.95;;;;;;;;;;6346006;22;20005;-87
2023/04/06 17:18:33;;;;;;;6.45;4.47;;;;;;;;;;6345071;22;20002;-78
2023/04/06 17:21:05;;;;;;;4.78;3.08;;;;;;;;;;6346668;22;19991;-86
2023/04/06 17:23:31;;;;;;;13.13;10.80;;;;;;;;;;6319043;22;19998;-86
2023/04/06 17:25:57;;;;;;;11.65;8.50;;;;;;;;;;6345151;22;19983;-83
2023/04/06 17:28:24;;;;;;;5.43;4.82;;;;;;;;;;6315075;22;20083;-79
2023/04/06 17:30:51;;;;;;;4.18;3.20;;;;;;;;;;6345878;22;20014;-88
2023/04/06 17:33:17;;;;;;;2.97;2.10;;;;;;;;;;6318897;22;20050;-89
2023/04/06 17:35:44;;;;;;;4.28;2.83;;;;;;;;;;6346643;22;19998;-78
2023/04/06 17:38:10;;;;;;;4.05;2.10;;;;;;;;;;6346446;22;20010;-88
2023/04/06 17:40:36;;;;;;;5.68;3.67;;;;;;;;;;6318551;22;20002;-85
2023/04/06 17:43:03;;;;;;;7.82;4.18;;;;;;;;;;6320566;22;20074;-83
2023/04/06 17:45:30;;;;;;;6.13;3.90;;;;;;;;;;6318518;22;20069;-82
2023/04/06 17:47:56;;;;;;;9.93;6.63;;;;;;;;;;6319529;22;20131;-88
2023/04/06 17:50:22;;;;;;;9.75;5.78;;;;;;;;;;6320013;22;20056;-86
2023/04/06 17:52:48;;;;;;;11.50;7.10;;;;;;;;;;6319790;22;20015;-90
2023/04/06 17:55:15;;;;;;;11.52;6.05;;;;;;;;;;6345048;22;20010;-81
2023/04/06 17:57:45;;;;;;;15.10;7.35;;;;;;;;;;6321095;22;20029;-77
2023/04/06 18:00:11;;;;;;;10.70;5.45;;;;;;;;;;6344410;22;20005;-82
2023/04/06 18:02:38;;;;;;;4.85;3.65;;;;;;;;;;6322807;22;20015;-83
2023/04/06 18:05:04;;;;;;;19.45;9.60;;;;;;;;;;6348492;22;20028;-86
2023/04/06 18:07:30;;;;;;;16.27;8.25;;;;;;;;;;6350159;22;19991;-84
2023/04/06 18:09:56;;;;;;;9.68;4.82;;;;;;;;;;6349456;22;20344;-82
2023/04/06 18:12:24;;;;;;;29.95;14.30;;;;;;;;;;6321893;22;20018;-78
2023/04/06 18:14:50;;;;;;;21.65;10.73;;;;;;;;;;6347614;22;19995;-84
2023/04/06 18:17:17;;;;;;;11.15;5.40;;;;;;;;;;6322262;22;20006;-80
2023/04/06 18:19:43;;;;;;;34.58;16.52;;;;;;;;;;6345227;22;20022;-86
2023/04/06 18:22:10;;;;;;;30.67;14.82;;;;;;;;;;6352351;22;20002;-87
2023/04/06 18:24:37;;;;;;;42.88;20.13;;;;;;;;;;6326670;22;20064;-78
2023/04/06 18:27:03;;;;;;;10.10;7.03;;;;;;;;;;6349425;22;20003;-80
2023/04/06 18:29:29;;;;;;;23.88;10.63;;;;;;;;;;6326286;22;20010;-87
2023/04/06 18:31:55;;;;;;;9.50;5.03;;;;;;;;;;6325657;22;20006;-77
2023/04/06 18:34:21;;;;;;;8.38;4.55;;;;;;;;;;6328166;22;20011;-89
2023/04/06 18:36:47;;;;;;;5.57;3.78;;;;;;;;;;6330534;22;19987;-85
2023/04/06 18:39:14;;;;;;;17.67;8.27;;;;;;;;;;6329391;22;20066;-85
2023/04/06 18:41:40;;;;;;;12.00;5.68;;;;;;;;;;6328921;22;20088;-85
2023/04/06 18:44:07;;;;;;;6.00;4.75;;;;;;;;;;6326482;22;20010;-79
2023/04/06 18:46:33;;;;;;;10.73;5.97;;;;;;;;;;6331089;22;20006;-79
2023/04/06 18:48:59;;;;;;;12.98;8.25;;;;;;;;;;6356407;22;19987;-82
2023/04/06 18:51:30;;;;;;;12.68;6.65;;;;;;;;;;6331529;22;20010;-85
2023/04/06 18:53:56;;;;;;;9.00;5.18;;;;;;;;;;6331274;22;20038;-79
2023/04/06 18:56:22;;;;;;;7.45;4.60;;;;;;;;;;6358765;22;20454;-78
2023/04/06 18:58:48;;;;;;;11.30;6.22;;;;;;;;;;6359492;22;20080;-84
2023/04/06 19:01:25;;;;;;;9.32;5.60;;;;;;;;;;6333117;22;19999;-82
2023/04/06 19:03:52;;;;;;;30.05;16.92;;;;;;;;;;6359446;22;20034;-82
2023/04/06 19:06:18;;;;;;;24.90;13.68;;;;;;;;;;6359034;22;20007;-80
2023/04/06 19:08:44;;;;;;;47.42;22.38;;;;;;;;;;6333311;22;20003;-82
2023/04/06 19:11:10;;;;;;;52.92;25.55;;;;;;;;;;6331993;22;20006;-85